This is the latest recevied weather packets stored in our database for station/object KB4MOX. If no packets are shown the sender has not sent any weather packets the latest 10 day(s).
| Time | Temp. | Humidity | Pressure | Rain* | Wind** | Luminosity | Snow |
|---|---|---|---|---|---|---|---|
| 1787767487 | 32.22° C | 55% | 1016.2 hPa | 0 mm | - | 869 W/m² | - |
| 1787767185 | 31.67° C | 56% | 1016.6 hPa | 0 mm | - | 590 W/m² | - |
| 1787766884 | 31.67° C | 57% | 1016.6 hPa | 0 mm | - | 903 W/m² | - |
| 1787766579 | 31.11° C | 58% | 1016.8 hPa | 0 mm | - | 787 W/m² | - |
| 1787766278 | 31.11° C | 58% | 1016.9 hPa | 0 mm | - | 827 W/m² | - |
| 1787765973 | 31.67° C | 58% | 1016.9 hPa | 0 mm | - | 232 W/m² | - |
| 1787765670 | 31.11° C | 59% | 1016.9 hPa | 0 mm | - | 886 W/m² | - |
| 1787765366 | 30.56° C | 61% | 1017 hPa | 0 mm | - | 957 W/m² | - |
| 1787765065 | 30.56° C | 60% | 1017.4 hPa | 0 mm | - | 249 W/m² | - |
| 1787764759 | 31.11° C | 61% | 1017.2 hPa | 0 mm | - | 903 W/m² | - |
| 1787764455 | 31.11° C | 59% | 1017.3 hPa | 0 mm | - | 867 W/m² | - |
| 1787764151 | 30.56° C | 61% | 1017.6 hPa | 0 mm | - | 782 W/m² | - |
| 1787763846 | 30° C | 62% | 1017.6 hPa | 0 mm | - | 239 W/m² | - |
| 1787763541 | 31.11° C | 59% | 1017.4 hPa | 0 mm | - | 181 W/m² | - |
| 1787763236 | 31.67° C | 58% | 1017.6 hPa | 0 mm | - | 877 W/m² | - |
| 1787762932 | 31.11° C | 58% | 1017.7 hPa | 0 mm | - | 860 W/m² | - |
| 1787762632 | 31.11° C | 59% | 1018.1 hPa | 0 mm | - | 886 W/m² | - |
| 1787762329 | 31.11° C | 58% | 1017.8 hPa | 0 mm | - | 860 W/m² | - |
| 1787762028 | 30.56° C | 61% | 1017.9 hPa | 0 mm | - | 837 W/m² | - |
| 1787761723 | 30° C | 62% | 1018.2 hPa | 0 mm | - | 841 W/m² | - |
| 1787761418 | 28.89° C | 65% | 1018.3 hPa | 0 mm | - | 847 W/m² | - |
| 1787761117 | 30° C | 63% | 1018.3 hPa | 0 mm | - | 223 W/m² | - |
| 1787760817 | 30° C | 62% | 1018.3 hPa | 0 mm | - | 783 W/m² | - |
| 1787760515 | 29.44° C | 64% | 1018.3 hPa | 0 mm | - | 805 W/m² | - |
| 1787760211 | 28.89° C | 66% | 1018.3 hPa | 0 mm | - | 772 W/m² | - |
* Rain latest hour (hover to see other rain measurements)
** Current wind speed in m/s (hover to see current wind gust speed)